createdAt,value
2023-03-11T00:00:28.292Z,6.73
2023-03-11T00:02:57.326Z,6.75
2023-03-11T00:05:36.365Z,6.76
2023-03-11T00:08:04.579Z,6.72
2023-03-11T00:10:42.530Z,6.72
2023-03-11T00:13:11.691Z,6.70
2023-03-11T00:15:40.947Z,6.72
2023-03-11T00:18:07.542Z,6.71
2023-03-11T00:20:36.943Z,6.72
2023-03-11T00:23:05.362Z,6.73
2023-03-11T00:25:33.262Z,6.75
2023-03-11T00:28:00.482Z,6.80
2023-03-11T00:30:28.273Z,6.76
2023-03-11T00:32:57.478Z,6.83
2023-03-11T00:35:27.389Z,6.79
2023-03-11T00:37:56.886Z,6.79
2023-03-11T00:40:25.928Z,6.83
2023-03-11T00:42:53.262Z,6.80
2023-03-11T00:45:20.140Z,6.76
2023-03-11T00:47:46.812Z,6.79
2023-03-11T00:50:20.901Z,6.80
2023-03-11T00:52:49.346Z,6.81
2023-03-11T00:55:18.862Z,6.83
2023-03-11T00:57:45.717Z,6.84
2023-03-11T01:00:18.009Z,6.84
2023-03-11T01:02:44.839Z,6.83
2023-03-11T01:05:11.998Z,6.83
2023-03-11T01:07:38.867Z,6.84
2023-03-11T01:10:06.993Z,6.82
2023-03-11T01:12:33.942Z,6.82
2023-03-11T01:15:00.597Z,6.81
2023-03-11T01:17:27.154Z,6.80
2023-03-11T01:19:53.721Z,6.78
2023-03-11T01:22:20.265Z,6.78
2023-03-11T01:24:46.906Z,6.76
2023-03-11T01:27:13.670Z,6.75
2023-03-11T01:29:40.195Z,6.76
2023-03-11T01:32:07.456Z,6.73
2023-03-11T01:34:36.080Z,6.74
2023-03-11T01:37:03.556Z,6.73
2023-03-11T01:39:30.461Z,6.71
2023-03-11T01:41:57.200Z,6.71
2023-03-11T01:44:23.867Z,6.71
2023-03-11T01:46:53.398Z,6.71
2023-03-11T01:49:23.618Z,6.73
2023-03-11T01:51:53.798Z,6.73
2023-03-11T01:54:31.188Z,6.73
2023-03-11T01:56:59.485Z,6.72
2023-03-11T01:59:30.916Z,6.74
2023-03-11T02:02:15.370Z,6.74
2023-03-11T02:04:42.382Z,6.75
2023-03-11T02:07:10.272Z,6.76
2023-03-11T02:09:36.945Z,6.76
2023-03-11T02:12:05.923Z,6.77
2023-03-11T02:14:33.112Z,6.76
2023-03-11T02:17:00.679Z,6.77
2023-03-11T02:19:48.761Z,6.77
2023-03-11T02:22:16.503Z,6.76
2023-03-11T02:25:09.503Z,6.78
2023-03-11T02:27:41.218Z,6.78
2023-03-11T02:30:10.734Z,6.81
2023-03-11T02:32:38.064Z,6.83
2023-03-11T02:35:05.886Z,6.83
2023-03-11T02:37:32.541Z,6.85
2023-03-11T02:40:31.476Z,6.84
2023-03-11T02:43:01.583Z,6.82
2023-03-11T02:45:29.995Z,6.80
2023-03-11T02:47:59.085Z,6.80
2023-03-11T02:50:28.723Z,6.75
2023-03-11T02:52:55.498Z,6.70
2023-03-11T02:55:22.132Z,6.66
2023-03-11T02:57:49.067Z,6.64
2023-03-11T03:00:17.557Z,6.55
2023-03-11T03:02:45.558Z,6.49
2023-03-11T03:05:13.156Z,6.41
2023-03-11T03:07:39.724Z,6.35
2023-03-11T03:10:07.005Z,6.31
2023-03-11T03:12:33.560Z,6.31
2023-03-11T03:15:00.137Z,6.26
2023-03-11T03:17:26.791Z,6.25
2023-03-11T03:19:53.381Z,6.24
2023-03-11T03:22:20.036Z,6.18
2023-03-11T03:24:46.707Z,6.14
2023-03-11T03:27:13.277Z,6.13
2023-03-11T03:29:39.850Z,6.10
2023-03-11T03:32:06.800Z,6.07
2023-03-11T03:34:33.640Z,6.08
2023-03-11T03:37:00.173Z,6.04
2023-03-11T03:39:28.246Z,5.99
2023-03-11T03:41:56.629Z,5.97
2023-03-11T03:44:23.175Z,5.91
2023-03-11T03:46:49.707Z,5.90
2023-03-11T03:49:16.568Z,5.81
2023-03-11T03:51:43.151Z,5.75
2023-03-11T03:54:09.746Z,5.72
2023-03-11T03:56:36.341Z,5.65
2023-03-11T03:59:02.962Z,5.54
2023-03-11T04:01:29.517Z,5.30
2023-03-11T04:03:56.045Z,4.93
2023-03-11T04:06:24.936Z,4.62
2023-03-11T04:08:52.671Z,4.38
2023-03-11T04:11:19.686Z,4.14
2023-03-11T04:13:46.455Z,4.01
2023-03-11T04:16:21.495Z,3.86
2023-03-11T04:18:48.169Z,3.65
2023-03-11T04:21:14.831Z,3.46
2023-03-11T04:23:41.487Z,3.28
2023-03-11T04:26:08.113Z,3.09
2023-03-11T04:28:34.639Z,2.88
2023-03-11T04:31:01.405Z,2.76
2023-03-11T04:33:28.137Z,2.68
2023-03-11T04:35:54.756Z,2.55
2023-03-11T04:38:21.434Z,2.43
2023-03-11T04:40:48.163Z,2.36
2023-03-11T04:43:14.757Z,2.28
2023-03-11T04:45:42.417Z,2.20
2023-03-11T04:48:09.313Z,2.12
2023-03-11T04:50:35.893Z,2.10
2023-03-11T04:53:02.472Z,2.07
2023-03-11T04:55:29.022Z,1.98
2023-03-11T04:57:55.653Z,1.95
2023-03-11T05:00:24.874Z,1.88
2023-03-11T05:02:51.796Z,1.80
2023-03-11T05:05:19.667Z,1.78
2023-03-11T05:07:46.554Z,1.71
2023-03-11T05:10:13.975Z,1.59
2023-03-11T05:12:40.854Z,1.54
2023-03-11T05:15:07.756Z,1.45
2023-03-11T05:17:34.280Z,1.41
2023-03-11T05:20:00.812Z,1.37
2023-03-11T05:22:27.439Z,1.32
2023-03-11T05:24:53.995Z,1.27
2023-03-11T05:27:21.323Z,1.20
2023-03-11T05:29:47.932Z,1.14
2023-03-11T05:32:14.814Z,1.14
2023-03-11T05:34:41.430Z,1.09
2023-03-11T05:37:08.097Z,1.07
2023-03-11T05:39:35.001Z,1.02
2023-03-11T05:42:01.594Z,1.02
2023-03-11T05:44:28.239Z,0.99
2023-03-11T05:46:54.938Z,0.96
2023-03-11T05:49:21.820Z,0.92
2023-03-11T05:51:49.255Z,0.90
2023-03-11T05:54:16.352Z,0.88
2023-03-11T05:56:44.591Z,0.87
2023-03-11T05:59:16.264Z,0.79
2023-03-11T06:01:43.850Z,0.77
2023-03-11T06:04:11.054Z,0.73
2023-03-11T06:06:40.331Z,0.74
2023-03-11T06:09:07.906Z,0.67
2023-03-11T06:11:34.475Z,0.59
2023-03-11T06:14:01.116Z,0.52
2023-03-11T06:16:27.814Z,0.44
2023-03-11T06:18:54.616Z,0.41
2023-03-11T06:21:24.085Z,0.36
2023-03-11T06:23:50.745Z,0.31
2023-03-11T06:26:20.352Z,0.27
2023-03-11T06:28:47.991Z,0.24
2023-03-11T06:31:20.724Z,0.23
2023-03-11T06:33:48.527Z,0.24
2023-03-11T06:36:17.651Z,0.24
2023-03-11T06:38:44.373Z,0.28
2023-03-11T06:41:10.911Z,0.30
2023-03-11T06:43:37.579Z,0.27
2023-03-11T06:46:12.564Z,0.24
2023-03-11T06:48:39.246Z,0.18
2023-03-11T06:51:06.286Z,0.17
2023-03-11T06:53:33.422Z,0.15
2023-03-11T06:56:02.778Z,0.13
2023-03-11T06:58:30.381Z,0.10
2023-03-11T07:01:01.207Z,0.08
2023-03-11T07:03:28.108Z,0.09
2023-03-11T07:05:54.786Z,0.09
2023-03-11T07:08:21.381Z,0.11
2023-03-11T07:11:00.381Z,0.10
2023-03-11T07:13:26.948Z,0.06
2023-03-11T07:16:01.444Z,0.06
2023-03-11T07:18:28.345Z,0.03
2023-03-11T07:20:54.898Z,0.07
2023-03-11T07:23:21.768Z,0.09
2023-03-11T07:25:48.877Z,0.12
2023-03-11T07:28:15.537Z,0.15
2023-03-11T07:30:44.469Z,0.21
2023-03-11T07:33:11.033Z,0.16
2023-03-11T07:35:37.721Z,0.19
2023-03-11T07:38:04.479Z,0.24
2023-03-11T07:40:31.391Z,0.25
2023-03-11T07:42:58.601Z,0.29
2023-03-11T07:45:25.173Z,0.29
2023-03-11T07:47:52.063Z,0.34
2023-03-11T07:50:19.208Z,0.34
2023-03-11T07:52:45.815Z,0.32
2023-03-11T07:55:12.401Z,0.33
2023-03-11T07:57:39.471Z,0.29
2023-03-11T08:00:06.683Z,0.25
2023-03-11T08:02:33.316Z,0.26
2023-03-11T08:05:00.024Z,0.28
2023-03-11T08:07:26.927Z,0.35
2023-03-11T08:09:53.468Z,0.38
2023-03-11T08:12:20.049Z,0.38
2023-03-11T08:14:46.574Z,0.34
2023-03-11T08:17:13.162Z,0.29
2023-03-11T08:19:39.906Z,0.29
2023-03-11T08:22:06.539Z,0.30
2023-03-11T08:24:33.664Z,0.34
2023-03-11T08:27:02.011Z,0.36
2023-03-11T08:29:28.558Z,0.39
2023-03-11T08:31:55.324Z,0.48
2023-03-11T08:34:22.400Z,0.48
2023-03-11T08:36:49.234Z,0.51
2023-03-11T08:39:16.073Z,0.54
2023-03-11T08:41:43.009Z,0.58
2023-03-11T08:44:09.891Z,0.55
2023-03-11T08:46:38.683Z,0.44
2023-03-11T08:49:05.993Z,0.40
2023-03-11T08:51:34.694Z,0.40
2023-03-11T08:54:02.807Z,0.43
2023-03-11T08:56:30.369Z,0.41
2023-03-11T08:58:57.297Z,0.39
2023-03-11T09:01:24.143Z,0.33
2023-03-11T09:03:50.733Z,0.25
2023-03-11T09:06:18.297Z,0.24
2023-03-11T09:08:46.197Z,0.25
2023-03-11T09:11:13.746Z,0.30
2023-03-11T09:13:41.989Z,0.41
2023-03-11T09:16:17.942Z,0.46
2023-03-11T09:18:47.763Z,0.54
2023-03-11T09:21:14.395Z,0.62
2023-03-11T09:23:44.009Z,0.71
2023-03-11T09:26:11.665Z,0.79
2023-03-11T09:28:38.521Z,0.88
2023-03-11T09:31:05.188Z,0.97
2023-03-11T09:33:31.825Z,0.88
2023-03-11T09:35:59.145Z,0.77
2023-03-11T09:38:25.813Z,0.73
2023-03-11T09:41:08.496Z,0.71
2023-03-11T09:43:56.397Z,0.77
2023-03-11T09:47:17.942Z,0.84
2023-03-11T09:50:15.232Z,0.99
2023-03-11T09:53:11.706Z,0.85
2023-03-11T09:55:53.709Z,0.60
2023-03-11T09:58:43.303Z,0.37
2023-03-11T10:01:18.143Z,0.24
2023-03-11T10:03:45.783Z,0.23
2023-03-11T10:06:12.859Z,0.20
2023-03-11T10:08:57.815Z,0.11
2023-03-11T10:12:01.858Z,0.10
2023-03-11T10:14:55.246Z,-0.01
2023-03-11T10:17:55.346Z,-0.02
2023-03-11T10:20:25.048Z,0.09
2023-03-11T10:23:00.825Z,0.16
2023-03-11T10:25:38.391Z,0.22
2023-03-11T10:28:12.140Z,0.34
2023-03-11T10:30:47.200Z,0.53
2023-03-11T10:33:38.388Z,0.66
2023-03-11T10:36:11.752Z,0.79
2023-03-11T10:38:47.044Z,0.72
2023-03-11T10:41:17.769Z,0.55
2023-03-11T10:44:13.427Z,0.44
2023-03-11T10:46:41.737Z,0.38
2023-03-11T10:49:15.409Z,0.37
2023-03-11T10:51:46.389Z,0.48
2023-03-11T10:54:37.768Z,0.67
2023-03-11T10:57:19.047Z,0.90
2023-03-11T10:59:48.472Z,1.06
2023-03-11T11:02:32.638Z,1.04
2023-03-11T11:05:28.178Z,1.03
2023-03-11T11:08:13.789Z,1.17
2023-03-11T11:11:01.747Z,1.39
2023-03-11T11:13:31.231Z,1.55
2023-03-11T11:16:00.692Z,1.64
2023-03-11T11:18:27.266Z,1.65
2023-03-11T11:21:10.957Z,1.37
2023-03-11T11:23:45.200Z,1.18
2023-03-11T11:26:22.304Z,1.12
2023-03-11T11:29:10.548Z,1.14
2023-03-11T11:31:42.842Z,1.26
2023-03-11T11:34:31.648Z,1.41
2023-03-11T11:37:00.912Z,1.51
2023-03-11T11:39:30.756Z,1.62
2023-03-11T11:41:57.792Z,1.69
2023-03-11T11:44:32.223Z,1.70
2023-03-11T11:47:08.968Z,1.60
2023-03-11T11:49:37.411Z,1.42
2023-03-11T11:52:14.561Z,1.40
2023-03-11T11:54:49.956Z,1.48
2023-03-11T11:57:22.230Z,1.41
2023-03-11T11:59:49.021Z,1.32
2023-03-11T12:02:28.412Z,1.21
2023-03-11T12:05:31.230Z,0.91
2023-03-11T12:08:24.244Z,1.00
2023-03-11T12:11:00.316Z,1.22
2023-03-11T12:13:38.953Z,1.31
2023-03-11T12:16:14.651Z,1.17
2023-03-11T12:18:56.680Z,1.15
2023-03-11T12:21:23.927Z,1.22
2023-03-11T12:24:27.611Z,1.31
2023-03-11T12:26:58.669Z,1.44
2023-03-11T12:29:35.660Z,1.51
2023-03-11T12:32:03.226Z,1.42
2023-03-11T12:34:34.364Z,1.25
2023-03-11T12:37:05.487Z,1.23
2023-03-11T12:39:34.542Z,1.37
2023-03-11T12:42:27.234Z,1.49
2023-03-11T12:44:53.984Z,1.64
2023-03-11T12:47:28.924Z,1.81
2023-03-11T12:50:16.146Z,1.92
2023-03-11T12:52:55.137Z,1.91
2023-03-11T12:55:30.890Z,1.83
2023-03-11T12:58:29.267Z,1.64
2023-03-11T13:01:21.923Z,1.55
2023-03-11T13:04:03.876Z,1.38
2023-03-11T13:06:51.312Z,1.38
2023-03-11T13:09:18.134Z,1.39
2023-03-11T13:11:49.026Z,1.49
2023-03-11T13:14:18.555Z,1.57
2023-03-11T13:16:46.412Z,1.57
2023-03-11T13:19:36.058Z,1.58
2023-03-11T13:22:24.255Z,1.47
2023-03-11T13:24:51.281Z,1.35
2023-03-11T13:27:36.722Z,1.28
2023-03-11T13:30:10.410Z,1.22
2023-03-11T13:33:00.008Z,1.22
2023-03-11T13:36:04.110Z,1.29
2023-03-11T13:38:33.526Z,1.40
2023-03-11T13:41:03.360Z,1.51
2023-03-11T13:43:30.079Z,1.59
2023-03-11T13:45:59.456Z,1.69
2023-03-11T13:48:46.455Z,1.87
2023-03-11T13:51:32.891Z,2.10
2023-03-11T13:54:04.770Z,2.28
2023-03-11T13:56:34.092Z,2.44
2023-03-11T13:59:36.260Z,2.53
2023-03-11T14:02:08.555Z,2.49
2023-03-11T14:04:37.520Z,2.38
2023-03-11T14:07:24.355Z,2.18
2023-03-11T14:09:51.166Z,2.14
2023-03-11T14:12:19.187Z,2.15
2023-03-11T14:15:04.890Z,2.23
2023-03-11T14:17:31.487Z,2.29
2023-03-11T14:20:04.838Z,2.38
2023-03-11T14:22:32.094Z,2.41
2023-03-11T14:25:01.972Z,2.47
2023-03-11T14:27:28.657Z,2.47
2023-03-11T14:29:55.477Z,2.51
2023-03-11T14:32:32.786Z,2.38
2023-03-11T14:35:00.026Z,2.46
2023-03-11T14:37:36.084Z,2.55
2023-03-11T14:40:04.134Z,2.52
2023-03-11T14:42:39.942Z,2.48
2023-03-11T14:45:14.275Z,2.56
2023-03-11T14:47:50.744Z,2.61
2023-03-11T14:50:36.498Z,2.64
2023-03-11T14:53:09.169Z,2.61
2023-03-11T14:55:40.565Z,2.57
2023-03-11T14:58:16.547Z,2.52
2023-03-11T15:01:32.584Z,2.53
2023-03-11T15:04:15.955Z,2.50
2023-03-11T15:06:44.239Z,2.39
2023-03-11T15:09:13.752Z,2.37
2023-03-11T15:11:48.636Z,2.38
2023-03-11T15:14:33.653Z,2.32
2023-03-11T15:17:44.232Z,2.25
2023-03-11T15:20:32.948Z,2.11
2023-03-11T15:23:06.028Z,1.99
2023-03-11T15:25:35.203Z,2.00
2023-03-11T15:28:36.466Z,2.04
2023-03-11T15:31:27.280Z,2.03
2023-03-11T15:33:54.452Z,2.03
2023-03-11T15:36:34.451Z,2.01
2023-03-11T15:39:11.654Z,1.94
2023-03-11T15:41:38.667Z,1.95
2023-03-11T15:44:07.746Z,1.87
2023-03-11T15:46:34.812Z,1.81
2023-03-11T15:49:01.912Z,1.71
2023-03-11T15:51:28.617Z,1.58
2023-03-11T15:53:55.199Z,1.44
2023-03-11T15:56:24.951Z,1.39
2023-03-11T15:58:54.467Z,1.37
2023-03-11T16:01:23.793Z,1.23
2023-03-11T16:03:50.445Z,1.17
2023-03-11T16:06:17.082Z,1.11
2023-03-11T16:08:45.031Z,0.98
2023-03-11T16:11:12.733Z,0.90
2023-03-11T16:13:39.432Z,0.82
2023-03-11T16:16:06.534Z,0.77
2023-03-11T16:18:34.032Z,0.74
2023-03-11T16:21:04.744Z,0.74
2023-03-11T16:23:50.542Z,0.70
2023-03-11T16:26:17.613Z,0.65
2023-03-11T16:28:44.345Z,0.58
2023-03-11T16:31:10.946Z,0.52
2023-03-11T16:33:38.920Z,0.45
2023-03-11T16:36:06.206Z,0.40
2023-03-11T16:38:43.268Z,0.38
2023-03-11T16:41:10.079Z,0.32
2023-03-11T16:43:36.669Z,0.26
2023-03-11T16:46:03.708Z,0.25
2023-03-11T16:48:30.423Z,0.19
2023-03-11T16:50:56.988Z,0.10
2023-03-11T16:53:25.197Z,0.07
2023-03-11T16:55:52.248Z,0.03
2023-03-11T16:58:18.965Z,0.00
2023-03-11T17:00:46.485Z,-0.04
2023-03-11T17:03:15.939Z,-0.09
2023-03-11T17:05:42.697Z,-0.12
2023-03-11T17:08:10.238Z,-0.18
2023-03-11T17:10:43.497Z,-0.23
2023-03-11T17:13:11.656Z,-0.24
2023-03-11T17:15:38.573Z,-0.29
2023-03-11T17:18:06.064Z,-0.33
2023-03-11T17:20:32.808Z,-0.33
2023-03-11T17:23:00.821Z,-0.38
2023-03-11T17:25:27.501Z,-0.43
2023-03-11T17:27:54.210Z,-0.49
2023-03-11T17:30:35.692Z,-0.52
2023-03-11T17:33:03.358Z,-0.56
2023-03-11T17:35:29.920Z,-0.59
2023-03-11T17:37:56.536Z,-0.63
2023-03-11T17:40:23.297Z,-0.66
2023-03-11T17:42:49.876Z,-0.67
2023-03-11T17:45:16.550Z,-0.70
2023-03-11T17:47:44.117Z,-0.70
2023-03-11T17:50:11.799Z,-0.72
2023-03-11T17:52:38.363Z,-0.66
2023-03-11T17:55:05.583Z,-0.60
2023-03-11T17:57:44.436Z,-0.54
2023-03-11T18:00:14.617Z,-0.52
2023-03-11T18:02:41.328Z,-0.50
2023-03-11T18:05:09.361Z,-0.51
2023-03-11T18:07:39.122Z,-0.49
2023-03-11T18:10:06.857Z,-0.47
2023-03-11T18:12:33.803Z,-0.50
2023-03-11T18:15:04.139Z,-0.52
2023-03-11T18:17:30.866Z,-0.52
2023-03-11T18:19:59.520Z,-0.53
2023-03-11T18:22:27.012Z,-0.54
2023-03-11T18:24:54.085Z,-0.59
2023-03-11T18:27:20.642Z,-0.59
2023-03-11T18:29:47.235Z,-0.57
2023-03-11T18:32:13.815Z,-0.58
2023-03-11T18:34:41.723Z,-0.57
2023-03-11T18:37:08.545Z,-0.54
2023-03-11T18:39:36.188Z,-0.53
2023-03-11T18:42:03.012Z,-0.51
2023-03-11T18:44:29.647Z,-0.56
2023-03-11T18:46:56.276Z,-0.57
2023-03-11T18:49:22.855Z,-0.59
2023-03-11T18:51:49.519Z,-0.57
2023-03-11T18:54:16.086Z,-0.57
2023-03-11T18:56:42.631Z,-0.57
2023-03-11T18:59:12.077Z,-0.58
2023-03-11T19:01:38.893Z,-0.62
2023-03-11T19:04:06.226Z,-0.63
2023-03-11T19:06:32.838Z,-0.66
2023-03-11T19:08:59.462Z,-0.69
2023-03-11T19:11:26.351Z,-0.71
2023-03-11T19:13:53.368Z,-0.70
2023-03-11T19:16:22.875Z,-0.72
2023-03-11T19:18:50.192Z,-0.72
2023-03-11T19:21:17.452Z,-0.73
2023-03-11T19:23:45.329Z,-0.71
2023-03-11T19:26:12.792Z,-0.72
2023-03-11T19:28:39.381Z,-0.70
2023-03-11T19:31:06.464Z,-0.73
2023-03-11T19:33:33.366Z,-0.71
2023-03-11T19:36:02.560Z,-0.69
2023-03-11T19:38:29.801Z,-0.68
2023-03-11T19:41:08.498Z,-0.64
2023-03-11T19:43:35.770Z,-0.62
2023-03-11T19:46:03.948Z,-0.64
2023-03-11T19:48:31.204Z,-0.67
2023-03-11T19:50:58.604Z,-0.68
2023-03-11T19:53:28.347Z,-0.69
2023-03-11T19:55:56.868Z,-0.72
2023-03-11T19:58:27.922Z,-0.70
2023-03-11T20:00:59.826Z,-0.72
2023-03-11T20:03:27.102Z,-0.73
2023-03-11T20:05:55.798Z,-0.77
2023-03-11T20:08:24.484Z,-0.74
2023-03-11T20:10:52.958Z,-0.78
2023-03-11T20:13:22.147Z,-0.83
2023-03-11T20:15:49.785Z,-0.85
2023-03-11T20:18:17.811Z,-0.86
2023-03-11T20:20:44.857Z,-0.85
2023-03-11T20:23:12.041Z,-0.86
2023-03-11T20:25:39.916Z,-0.89
2023-03-11T20:28:06.732Z,-0.91
2023-03-11T20:30:33.616Z,-0.90
2023-03-11T20:33:00.530Z,-0.89
2023-03-11T20:35:27.440Z,-0.90
2023-03-11T20:37:54.096Z,-0.91
2023-03-11T20:40:21.208Z,-0.94
2023-03-11T20:42:47.936Z,-0.96
2023-03-11T20:45:16.286Z,-0.94
2023-03-11T20:47:44.437Z,-0.97
2023-03-11T20:50:12.698Z,-0.98
2023-03-11T20:52:39.895Z,-0.97
2023-03-11T20:55:08.392Z,-0.98
2023-03-11T20:57:36.870Z,-0.99
2023-03-11T21:00:11.424Z,-1.01
2023-03-11T21:02:39.834Z,-1.01
2023-03-11T21:05:08.038Z,-1.02
2023-03-11T21:07:34.844Z,-1.02
2023-03-11T21:10:02.120Z,-1.04
2023-03-11T21:12:31.137Z,-1.03
2023-03-11T21:14:58.235Z,-1.01
2023-03-11T21:17:25.131Z,-1.02
2023-03-11T21:19:52.145Z,-1.04
2023-03-11T21:22:19.038Z,-1.02
2023-03-11T21:24:45.839Z,-1.04
2023-03-11T21:27:12.693Z,-1.06
2023-03-11T21:29:39.460Z,-1.05
2023-03-11T21:32:06.366Z,-1.08
2023-03-11T21:34:33.256Z,-1.10
2023-03-11T21:37:00.193Z,-1.11
2023-03-11T21:39:26.995Z,-1.11
2023-03-11T21:41:56.127Z,-1.14
2023-03-11T21:44:23.116Z,-1.14
2023-03-11T21:46:49.854Z,-1.17
2023-03-11T21:49:16.630Z,-1.20
2023-03-11T21:51:43.563Z,-1.23
2023-03-11T21:54:11.055Z,-1.25
2023-03-11T21:56:37.864Z,-1.27
2023-03-11T21:59:06.435Z,-1.28
2023-03-11T22:01:34.119Z,-1.29
2023-03-11T22:04:02.485Z,-1.29
2023-03-11T22:06:31.216Z,-1.31
2023-03-11T22:08:58.282Z,-1.30
2023-03-11T22:11:25.256Z,-1.29
2023-03-11T22:13:54.159Z,-1.30
2023-03-11T22:16:22.517Z,-1.30
2023-03-11T22:18:49.878Z,-1.32
2023-03-11T22:21:17.888Z,-1.32
2023-03-11T22:23:45.234Z,-1.36
2023-03-11T22:26:11.905Z,-1.37
2023-03-11T22:28:38.612Z,-1.39
2023-03-11T22:31:08.967Z,-1.41
2023-03-11T22:33:35.962Z,-1.42
2023-03-11T22:36:04.715Z,-1.43
2023-03-11T22:38:32.632Z,-1.44
2023-03-11T22:41:00.413Z,-1.46
2023-03-11T22:43:27.695Z,-1.47
2023-03-11T22:45:54.356Z,-1.50
2023-03-11T22:48:21.066Z,-1.48
2023-03-11T22:50:47.893Z,-1.44
2023-03-11T22:53:15.554Z,-1.45
2023-03-11T22:55:43.850Z,-1.48
2023-03-11T22:58:11.279Z,-1.51
2023-03-11T23:00:38.211Z,-1.55
2023-03-11T23:03:05.012Z,-1.61
2023-03-11T23:05:31.601Z,-1.65
2023-03-11T23:07:58.171Z,-1.67
2023-03-11T23:10:24.747Z,-1.68
2023-03-11T23:12:51.309Z,-1.65
2023-03-11T23:15:19.378Z,-1.65
2023-03-11T23:17:46.325Z,-1.64
2023-03-11T23:20:15.134Z,-1.67
2023-03-11T23:22:42.348Z,-1.69
2023-03-11T23:25:12.867Z,-1.68
2023-03-11T23:27:39.776Z,-1.68
2023-03-11T23:30:07.474Z,-1.70
2023-03-11T23:32:34.532Z,-1.73
2023-03-11T23:35:01.117Z,-1.75
2023-03-11T23:37:27.661Z,-1.78
2023-03-11T23:39:54.273Z,-1.77
2023-03-11T23:42:25.737Z,-1.77
2023-03-11T23:44:53.677Z,-1.79
2023-03-11T23:47:20.573Z,-1.78
2023-03-11T23:49:47.191Z,-1.80
2023-03-11T23:52:13.827Z,-1.80
2023-03-11T23:54:40.429Z,-1.81
2023-03-11T23:57:07.123Z,-1.77
2023-03-11T23:59:33.758Z,-1.76
